sensor_id;sensor_type;location;lat;lon;timestamp;P1;durP1;ratioP1;P2;durP2;ratioP2
4244;SDS011;2136;48.502;9.194;2022-07-29T00:01:38;5.67;;;5.17;;
4244;SDS011;2136;48.502;9.194;2022-07-29T00:04:04;5.50;;;5.00;;
4244;SDS011;2136;48.502;9.194;2022-07-29T00:06:31;5.10;;;4.60;;
4244;SDS011;2136;48.502;9.194;2022-07-29T00:08:58;5.53;;;5.03;;
4244;SDS011;2136;48.502;9.194;2022-07-29T00:11:26;4.87;;;4.47;;
4244;SDS011;2136;48.502;9.194;2022-07-29T00:13:53;6.63;;;6.13;;
4244;SDS011;2136;48.502;9.194;2022-07-29T00:16:20;8.80;;;4.67;;
4244;SDS011;2136;48.502;9.194;2022-07-29T00:18:48;4.90;;;4.40;;
4244;SDS011;2136;48.502;9.194;2022-07-29T00:21:14;4.90;;;4.40;;
4244;SDS011;2136;48.502;9.194;2022-07-29T00:23:41;5.53;;;5.00;;
4244;SDS011;2136;48.502;9.194;2022-07-29T00:26:08;5.07;;;4.07;;
4244;SDS011;2136;48.502;9.194;2022-07-29T00:28:36;9.60;;;4.83;;
4244;SDS011;2136;48.502;9.194;2022-07-29T00:31:03;5.13;;;4.63;;
4244;SDS011;2136;48.502;9.194;2022-07-29T00:33:30;6.10;;;4.30;;
4244;SDS011;2136;48.502;9.194;2022-07-29T00:35:57;5.47;;;4.40;;
4244;SDS011;2136;48.502;9.194;2022-07-29T00:38:23;8.03;;;4.53;;
4244;SDS011;2136;48.502;9.194;2022-07-29T00:40:50;5.03;;;4.53;;
4244;SDS011;2136;48.502;9.194;2022-07-29T00:43:16;6.60;;;4.90;;
4244;SDS011;2136;48.502;9.194;2022-07-29T00:45:45;5.03;;;4.13;;
4244;SDS011;2136;48.502;9.194;2022-07-29T00:48:12;5.63;;;5.20;;
4244;SDS011;2136;48.502;9.194;2022-07-29T00:50:39;4.80;;;4.40;;
4244;SDS011;2136;48.502;9.194;2022-07-29T00:53:06;4.20;;;3.90;;
4244;SDS011;2136;48.502;9.194;2022-07-29T00:55:34;5.17;;;4.77;;
4244;SDS011;2136;48.502;9.194;2022-07-29T00:58:01;5.37;;;4.87;;
4244;SDS011;2136;48.502;9.194;2022-07-29T01:00:28;5.53;;;5.03;;
4244;SDS011;2136;48.502;9.194;2022-07-29T01:02:56;4.27;;;3.97;;
4244;SDS011;2136;48.502;9.194;2022-07-29T01:05:24;4.50;;;4.10;;
4244;SDS011;2136;48.502;9.194;2022-07-29T01:07:54;4.30;;;3.90;;
4244;SDS011;2136;48.502;9.194;2022-07-29T01:10:22;4.60;;;4.20;;
4244;SDS011;2136;48.502;9.194;2022-07-29T01:12:50;4.10;;;3.70;;
4244;SDS011;2136;48.502;9.194;2022-07-29T01:15:18;5.63;;;5.00;;
4244;SDS011;2136;48.502;9.194;2022-07-29T01:17:47;5.27;;;4.47;;
4244;SDS011;2136;48.502;9.194;2022-07-29T01:20:23;4.60;;;4.20;;
4244;SDS011;2136;48.502;9.194;2022-07-29T01:29:07;11.20;;;5.10;;
4244;SDS011;2136;48.502;9.194;2022-07-29T01:31:43;5.93;;;4.50;;
4244;SDS011;2136;48.502;9.194;2022-07-29T01:34:15;6.30;;;4.67;;
4244;SDS011;2136;48.502;9.194;2022-07-29T01:36:47;7.77;;;5.33;;
4244;SDS011;2136;48.502;9.194;2022-07-29T01:39:18;5.03;;;4.53;;
4244;SDS011;2136;48.502;9.194;2022-07-29T01:41:50;4.60;;;4.30;;
4244;SDS011;2136;48.502;9.194;2022-07-29T01:44:30;5.07;;;4.57;;
4244;SDS011;2136;48.502;9.194;2022-07-29T01:47:02;6.90;;;4.70;;
4244;SDS011;2136;48.502;9.194;2022-07-29T01:49:35;5.03;;;4.63;;
4244;SDS011;2136;48.502;9.194;2022-07-29T01:52:07;5.90;;;5.40;;
4244;SDS011;2136;48.502;9.194;2022-07-29T01:54:40;6.30;;;5.80;;
4244;SDS011;2136;48.502;9.194;2022-07-29T01:57:11;5.27;;;4.77;;
4244;SDS011;2136;48.502;9.194;2022-07-29T01:59:43;6.37;;;5.07;;
4244;SDS011;2136;48.502;9.194;2022-07-29T02:02:12;8.27;;;5.00;;
4244;SDS011;2136;48.502;9.194;2022-07-29T02:04:41;6.53;;;4.70;;
4244;SDS011;2136;48.502;9.194;2022-07-29T02:07:13;5.47;;;4.90;;
4244;SDS011;2136;48.502;9.194;2022-07-29T02:09:44;11.60;;;4.70;;
4244;SDS011;2136;48.502;9.194;2022-07-29T02:12:13;5.27;;;4.77;;
4244;SDS011;2136;48.502;9.194;2022-07-29T02:14:45;5.03;;;4.53;;
4244;SDS011;2136;48.502;9.194;2022-07-29T02:17:17;5.70;;;5.20;;
4244;SDS011;2136;48.502;9.194;2022-07-29T02:19:50;8.07;;;5.27;;
4244;SDS011;2136;48.502;9.194;2022-07-29T02:22:19;5.87;;;5.30;;
4244;SDS011;2136;48.502;9.194;2022-07-29T02:24:48;5.90;;;5.30;;
4244;SDS011;2136;48.502;9.194;2022-07-29T02:27:16;5.93;;;5.43;;
4244;SDS011;2136;48.502;9.194;2022-07-29T02:29:46;6.20;;;5.37;;
4244;SDS011;2136;48.502;9.194;2022-07-29T02:32:15;6.00;;;5.40;;
4244;SDS011;2136;48.502;9.194;2022-07-29T02:34:43;7.33;;;5.80;;
4244;SDS011;2136;48.502;9.194;2022-07-29T02:37:10;6.33;;;5.70;;
4244;SDS011;2136;48.502;9.194;2022-07-29T02:39:39;7.03;;;6.33;;
4244;SDS011;2136;48.502;9.194;2022-07-29T02:42:10;7.93;;;6.50;;
4244;SDS011;2136;48.502;9.194;2022-07-29T02:44:40;6.10;;;5.43;;
4244;SDS011;2136;48.502;9.194;2022-07-29T02:47:12;7.93;;;5.70;;
4244;SDS011;2136;48.502;9.194;2022-07-29T02:49:47;6.03;;;5.50;;
4244;SDS011;2136;48.502;9.194;2022-07-29T02:52:19;6.10;;;5.40;;
4244;SDS011;2136;48.502;9.194;2022-07-29T02:54:51;7.10;;;6.40;;
4244;SDS011;2136;48.502;9.194;2022-07-29T02:57:23;8.20;;;6.03;;
4244;SDS011;2136;48.502;9.194;2022-07-29T03:00:01;7.50;;;6.80;;
4244;SDS011;2136;48.502;9.194;2022-07-29T03:02:33;8.20;;;7.50;;
4244;SDS011;2136;48.502;9.194;2022-07-29T03:05:04;7.30;;;6.60;;
4244;SDS011;2136;48.502;9.194;2022-07-29T03:07:36;7.17;;;6.57;;
4244;SDS011;2136;48.502;9.194;2022-07-29T03:10:05;7.20;;;6.60;;
4244;SDS011;2136;48.502;9.194;2022-07-29T03:12:33;7.37;;;6.70;;
4244;SDS011;2136;48.502;9.194;2022-07-29T03:15:01;8.03;;;7.23;;
4244;SDS011;2136;48.502;9.194;2022-07-29T03:17:28;7.03;;;6.40;;
4244;SDS011;2136;48.502;9.194;2022-07-29T03:19:58;12.13;;;8.00;;
4244;SDS011;2136;48.502;9.194;2022-07-29T03:22:25;7.20;;;6.60;;
4244;SDS011;2136;48.502;9.194;2022-07-29T03:24:52;7.87;;;7.17;;
4244;SDS011;2136;48.502;9.194;2022-07-29T03:27:19;9.03;;;6.60;;
4244;SDS011;2136;48.502;9.194;2022-07-29T03:29:47;8.10;;;7.30;;
4244;SDS011;2136;48.502;9.194;2022-07-29T03:32:13;7.87;;;7.17;;
4244;SDS011;2136;48.502;9.194;2022-07-29T03:34:40;9.37;;;8.47;;
4244;SDS011;2136;48.502;9.194;2022-07-29T03:37:09;7.10;;;6.50;;
4244;SDS011;2136;48.502;9.194;2022-07-29T03:39:37;7.73;;;6.93;;
4244;SDS011;2136;48.502;9.194;2022-07-29T03:42:06;6.77;;;6.07;;
4244;SDS011;2136;48.502;9.194;2022-07-29T03:44:36;7.57;;;6.87;;
4244;SDS011;2136;48.502;9.194;2022-07-29T03:47:04;7.83;;;6.80;;
4244;SDS011;2136;48.502;9.194;2022-07-29T03:49:34;8.87;;;7.40;;
4244;SDS011;2136;48.502;9.194;2022-07-29T03:52:04;7.10;;;6.50;;
4244;SDS011;2136;48.502;9.194;2022-07-29T03:54:32;6.40;;;5.77;;
4244;SDS011;2136;48.502;9.194;2022-07-29T03:57:00;10.60;;;6.30;;
4244;SDS011;2136;48.502;9.194;2022-07-29T03:59:27;7.60;;;6.80;;
4244;SDS011;2136;48.502;9.194;2022-07-29T04:01:58;6.93;;;6.30;;
4244;SDS011;2136;48.502;9.194;2022-07-29T04:04:27;7.53;;;6.83;;
4244;SDS011;2136;48.502;9.194;2022-07-29T04:06:53;7.67;;;6.97;;
4244;SDS011;2136;48.502;9.194;2022-07-29T04:09:20;6.87;;;5.93;;
4244;SDS011;2136;48.502;9.194;2022-07-29T04:11:48;12.40;;;8.10;;
4244;SDS011;2136;48.502;9.194;2022-07-29T04:14:16;11.37;;;7.73;;
4244;SDS011;2136;48.502;9.194;2022-07-29T04:16:42;8.97;;;7.97;;
4244;SDS011;2136;48.502;9.194;2022-07-29T04:19:09;9.93;;;7.00;;
4244;SDS011;2136;48.502;9.194;2022-07-29T04:21:36;8.77;;;7.97;;
4244;SDS011;2136;48.502;9.194;2022-07-29T04:24:04;8.83;;;8.03;;
4244;SDS011;2136;48.502;9.194;2022-07-29T04:26:31;7.60;;;6.90;;
4244;SDS011;2136;48.502;9.194;2022-07-29T04:28:59;8.90;;;8.00;;
4244;SDS011;2136;48.502;9.194;2022-07-29T04:31:26;9.27;;;7.70;;
4244;SDS011;2136;48.502;9.194;2022-07-29T04:33:53;8.80;;;7.03;;
4244;SDS011;2136;48.502;9.194;2022-07-29T04:36:20;8.87;;;8.07;;
4244;SDS011;2136;48.502;9.194;2022-07-29T04:38:47;7.80;;;7.00;;
4244;SDS011;2136;48.502;9.194;2022-07-29T04:41:14;7.80;;;7.17;;
4244;SDS011;2136;48.502;9.194;2022-07-29T04:43:41;8.43;;;7.63;;
4244;SDS011;2136;48.502;9.194;2022-07-29T04:46:09;9.50;;;6.60;;
4244;SDS011;2136;48.502;9.194;2022-07-29T04:48:36;8.97;;;8.17;;
4244;SDS011;2136;48.502;9.194;2022-07-29T04:51:03;8.40;;;6.50;;
4244;SDS011;2136;48.502;9.194;2022-07-29T04:53:29;9.13;;;6.57;;
4244;SDS011;2136;48.502;9.194;2022-07-29T04:55:56;7.33;;;6.73;;
4244;SDS011;2136;48.502;9.194;2022-07-29T04:58:23;13.10;;;6.57;;
4244;SDS011;2136;48.502;9.194;2022-07-29T05:00:51;6.10;;;5.60;;
4244;SDS011;2136;48.502;9.194;2022-07-29T05:03:19;6.70;;;6.10;;
4244;SDS011;2136;48.502;9.194;2022-07-29T05:05:46;7.70;;;6.93;;
4244;SDS011;2136;48.502;9.194;2022-07-29T05:08:13;7.33;;;6.23;;
4244;SDS011;2136;48.502;9.194;2022-07-29T05:10:40;7.77;;;6.93;;
4244;SDS011;2136;48.502;9.194;2022-07-29T05:13:07;11.50;;;6.13;;
4244;SDS011;2136;48.502;9.194;2022-07-29T05:15:34;8.83;;;6.60;;
4244;SDS011;2136;48.502;9.194;2022-07-29T05:18:01;7.27;;;6.67;;
4244;SDS011;2136;48.502;9.194;2022-07-29T05:20:30;6.87;;;6.27;;
4244;SDS011;2136;48.502;9.194;2022-07-29T05:22:59;7.00;;;6.30;;
4244;SDS011;2136;48.502;9.194;2022-07-29T05:25:27;7.47;;;6.77;;
4244;SDS011;2136;48.502;9.194;2022-07-29T05:27:54;8.10;;;6.60;;
4244;SDS011;2136;48.502;9.194;2022-07-29T05:30:22;7.33;;;6.20;;
4244;SDS011;2136;48.502;9.194;2022-07-29T05:32:49;9.63;;;6.10;;
4244;SDS011;2136;48.502;9.194;2022-07-29T05:35:16;8.37;;;6.70;;
4244;SDS011;2136;48.502;9.194;2022-07-29T05:37:44;6.80;;;6.20;;
4244;SDS011;2136;48.502;9.194;2022-07-29T05:40:11;8.00;;;6.30;;
4244;SDS011;2136;48.502;9.194;2022-07-29T05:42:38;9.00;;;6.83;;
4244;SDS011;2136;48.502;9.194;2022-07-29T05:45:05;8.43;;;7.63;;
4244;SDS011;2136;48.502;9.194;2022-07-29T05:47:32;7.55;;;6.90;;
4244;SDS011;2136;48.502;9.194;2022-07-29T05:49:59;8.33;;;6.73;;
4244;SDS011;2136;48.502;9.194;2022-07-29T05:52:26;7.93;;;7.23;;
4244;SDS011;2136;48.502;9.194;2022-07-29T05:54:54;7.00;;;6.40;;
4244;SDS011;2136;48.502;9.194;2022-07-29T05:57:22;6.90;;;6.30;;
4244;SDS011;2136;48.502;9.194;2022-07-29T05:59:50;7.63;;;6.93;;
4244;SDS011;2136;48.502;9.194;2022-07-29T06:02:17;6.57;;;5.97;;
4244;SDS011;2136;48.502;9.194;2022-07-29T06:04:44;8.03;;;5.93;;
4244;SDS011;2136;48.502;9.194;2022-07-29T06:07:11;8.10;;;7.30;;
4244;SDS011;2136;48.502;9.194;2022-07-29T06:09:38;6.10;;;5.50;;
4244;SDS011;2136;48.502;9.194;2022-07-29T06:12:06;5.77;;;5.33;;
4244;SDS011;2136;48.502;9.194;2022-07-29T06:14:33;6.73;;;5.97;;
4244;SDS011;2136;48.502;9.194;2022-07-29T06:17:00;7.20;;;6.50;;
4244;SDS011;2136;48.502;9.194;2022-07-29T06:19:27;7.40;;;6.70;;
4244;SDS011;2136;48.502;9.194;2022-07-29T06:21:54;8.33;;;6.13;;
4244;SDS011;2136;48.502;9.194;2022-07-29T06:24:20;8.90;;;6.80;;
4244;SDS011;2136;48.502;9.194;2022-07-29T06:26:47;7.63;;;6.93;;
4244;SDS011;2136;48.502;9.194;2022-07-29T06:29:15;7.53;;;6.87;;
4244;SDS011;2136;48.502;9.194;2022-07-29T06:31:42;9.17;;;7.93;;
4244;SDS011;2136;48.502;9.194;2022-07-29T06:34:09;9.98;;;7.40;;
4244;SDS011;2136;48.502;9.194;2022-07-29T06:36:36;7.30;;;6.60;;
4244;SDS011;2136;48.502;9.194;2022-07-29T06:39:04;7.20;;;6.60;;
4244;SDS011;2136;48.502;9.194;2022-07-29T06:41:32;11.17;;;7.87;;
4244;SDS011;2136;48.502;9.194;2022-07-29T06:43:59;7.83;;;7.07;;
4244;SDS011;2136;48.502;9.194;2022-07-29T06:46:27;9.60;;;7.63;;
4244;SDS011;2136;48.502;9.194;2022-07-29T06:48:54;11.00;;;7.50;;
4244;SDS011;2136;48.502;9.194;2022-07-29T06:51:21;9.87;;;7.50;;
4244;SDS011;2136;48.502;9.194;2022-07-29T06:53:48;8.87;;;7.10;;
4244;SDS011;2136;48.502;9.194;2022-07-29T06:56:16;12.50;;;6.90;;
4244;SDS011;2136;48.502;9.194;2022-07-29T06:58:42;7.07;;;5.90;;
4244;SDS011;2136;48.502;9.194;2022-07-29T07:01:09;6.53;;;6.00;;
4244;SDS011;2136;48.502;9.194;2022-07-29T07:03:37;7.17;;;6.57;;
4244;SDS011;2136;48.502;9.194;2022-07-29T07:06:04;8.50;;;6.70;;
4244;SDS011;2136;48.502;9.194;2022-07-29T07:08:31;8.17;;;6.80;;
4244;SDS011;2136;48.502;9.194;2022-07-29T07:10:58;8.53;;;7.30;;
4244;SDS011;2136;48.502;9.194;2022-07-29T07:13:25;11.07;;;5.30;;
4244;SDS011;2136;48.502;9.194;2022-07-29T07:15:53;5.50;;;5.00;;
4244;SDS011;2136;48.502;9.194;2022-07-29T07:18:20;5.57;;;5.17;;
4244;SDS011;2136;48.502;9.194;2022-07-29T07:20:48;12.70;;;5.67;;
4244;SDS011;2136;48.502;9.194;2022-07-29T07:23:15;5.10;;;4.57;;
4244;SDS011;2136;48.502;9.194;2022-07-29T07:25:41;13.03;;;5.03;;
4244;SDS011;2136;48.502;9.194;2022-07-29T07:28:08;4.20;;;3.90;;
4244;SDS011;2136;48.502;9.194;2022-07-29T07:30:35;5.37;;;4.00;;
4244;SDS011;2136;48.502;9.194;2022-07-29T07:33:02;4.10;;;3.80;;
4244;SDS011;2136;48.502;9.194;2022-07-29T07:35:29;4.47;;;3.73;;
4244;SDS011;2136;48.502;9.194;2022-07-29T07:37:58;4.23;;;3.33;;
4244;SDS011;2136;48.502;9.194;2022-07-29T07:40:25;4.00;;;3.70;;
4244;SDS011;2136;48.502;9.194;2022-07-29T07:42:52;7.53;;;3.80;;
4244;SDS011;2136;48.502;9.194;2022-07-29T07:45:19;7.50;;;3.90;;
4244;SDS011;2136;48.502;9.194;2022-07-29T07:47:46;3.93;;;3.63;;
4244;SDS011;2136;48.502;9.194;2022-07-29T07:50:13;4.03;;;3.67;;
4244;SDS011;2136;48.502;9.194;2022-07-29T07:52:47;6.30;;;3.63;;
4244;SDS011;2136;48.502;9.194;2022-07-29T07:55:16;4.63;;;3.97;;
4244;SDS011;2136;48.502;9.194;2022-07-29T07:57:43;6.63;;;3.40;;
4244;SDS011;2136;48.502;9.194;2022-07-29T08:00:11;3.50;;;3.23;;
4244;SDS011;2136;48.502;9.194;2022-07-29T08:02:39;4.73;;;3.60;;
4244;SDS011;2136;48.502;9.194;2022-07-29T08:05:07;4.10;;;3.80;;
4244;SDS011;2136;48.502;9.194;2022-07-29T08:07:35;7.00;;;3.77;;
4244;SDS011;2136;48.502;9.194;2022-07-29T08:10:02;5.97;;;3.40;;
4244;SDS011;2136;48.502;9.194;2022-07-29T08:12:31;3.93;;;3.63;;
4244;SDS011;2136;48.502;9.194;2022-07-29T08:14:58;4.10;;;3.70;;
4244;SDS011;2136;48.502;9.194;2022-07-29T08:17:24;5.37;;;3.73;;
4244;SDS011;2136;48.502;9.194;2022-07-29T08:19:52;5.10;;;3.90;;
4244;SDS011;2136;48.502;9.194;2022-07-29T08:22:19;7.57;;;4.10;;
4244;SDS011;2136;48.502;9.194;2022-07-29T08:24:46;6.30;;;3.53;;
4244;SDS011;2136;48.502;9.194;2022-07-29T08:27:19;3.50;;;3.30;;
4244;SDS011;2136;48.502;9.194;2022-07-29T08:29:47;3.67;;;3.40;;
4244;SDS011;2136;48.502;9.194;2022-07-29T08:32:14;3.13;;;2.90;;
4244;SDS011;2136;48.502;9.194;2022-07-29T08:34:41;7.93;;;3.73;;
4244;SDS011;2136;48.502;9.194;2022-07-29T08:37:11;3.60;;;3.10;;
4244;SDS011;2136;48.502;9.194;2022-07-29T08:39:38;5.23;;;3.23;;
4244;SDS011;2136;48.502;9.194;2022-07-29T08:42:05;9.50;;;3.70;;
4244;SDS011;2136;48.502;9.194;2022-07-29T08:44:32;3.23;;;3.03;;
4244;SDS011;2136;48.502;9.194;2022-07-29T08:47:01;14.23;;;4.43;;
4244;SDS011;2136;48.502;9.194;2022-07-29T08:49:27;6.10;;;3.27;;
4244;SDS011;2136;48.502;9.194;2022-07-29T08:51:54;4.00;;;3.63;;
4244;SDS011;2136;48.502;9.194;2022-07-29T08:54:23;5.73;;;3.70;;
4244;SDS011;2136;48.502;9.194;2022-07-29T08:56:51;4.37;;;3.60;;
4244;SDS011;2136;48.502;9.194;2022-07-29T08:59:19;3.43;;;3.13;;
4244;SDS011;2136;48.502;9.194;2022-07-29T09:01:46;4.90;;;3.47;;
4244;SDS011;2136;48.502;9.194;2022-07-29T09:04:16;3.90;;;3.40;;
4244;SDS011;2136;48.502;9.194;2022-07-29T09:06:46;5.80;;;2.73;;
4244;SDS011;2136;48.502;9.194;2022-07-29T09:09:15;3.23;;;3.00;;
4244;SDS011;2136;48.502;9.194;2022-07-29T09:11:42;5.03;;;3.37;;
4244;SDS011;2136;48.502;9.194;2022-07-29T09:14:10;3.53;;;3.23;;
4244;SDS011;2136;48.502;9.194;2022-07-29T09:16:46;11.30;;;4.00;;
4244;SDS011;2136;48.502;9.194;2022-07-29T09:19:22;3.33;;;3.03;;
4244;SDS011;2136;48.502;9.194;2022-07-29T09:21:50;4.63;;;3.40;;
4244;SDS011;2136;48.502;9.194;2022-07-29T09:24:24;12.20;;;3.57;;
4244;SDS011;2136;48.502;9.194;2022-07-29T09:27:08;5.57;;;3.23;;
4244;SDS011;2136;48.502;9.194;2022-07-29T09:29:37;4.53;;;2.90;;
4244;SDS011;2136;48.502;9.194;2022-07-29T09:32:06;4.67;;;3.50;;
4244;SDS011;2136;48.502;9.194;2022-07-29T09:34:36;8.60;;;3.70;;
4244;SDS011;2136;48.502;9.194;2022-07-29T09:37:03;3.53;;;3.23;;
4244;SDS011;2136;48.502;9.194;2022-07-29T09:39:32;6.60;;;3.40;;
4244;SDS011;2136;48.502;9.194;2022-07-29T09:42:00;3.47;;;3.27;;
4244;SDS011;2136;48.502;9.194;2022-07-29T09:44:40;12.03;;;4.20;;
4244;SDS011;2136;48.502;9.194;2022-07-29T09:47:08;5.10;;;3.10;;
4244;SDS011;2136;48.502;9.194;2022-07-29T09:49:50;5.30;;;3.33;;
4244;SDS011;2136;48.502;9.194;2022-07-29T09:52:18;6.23;;;3.67;;
4244;SDS011;2136;48.502;9.194;2022-07-29T09:54:46;6.27;;;3.33;;
4244;SDS011;2136;48.502;9.194;2022-07-29T09:57:23;6.50;;;3.30;;
4244;SDS011;2136;48.502;9.194;2022-07-29T09:59:58;3.40;;;3.00;;
4244;SDS011;2136;48.502;9.194;2022-07-29T10:02:29;3.70;;;3.40;;
4244;SDS011;2136;48.502;9.194;2022-07-29T10:04:59;9.23;;;3.87;;
4244;SDS011;2136;48.502;9.194;2022-07-29T10:07:27;4.37;;;3.53;;
4244;SDS011;2136;48.502;9.194;2022-07-29T10:10:10;3.93;;;3.00;;
4244;SDS011;2136;48.502;9.194;2022-07-29T10:12:51;6.77;;;3.27;;
4244;SDS011;2136;48.502;9.194;2022-07-29T10:15:21;7.83;;;3.53;;
4244;SDS011;2136;48.502;9.194;2022-07-29T10:17:50;5.63;;;3.80;;
4244;SDS011;2136;48.502;9.194;2022-07-29T10:20:18;4.07;;;3.70;;
4244;SDS011;2136;48.502;9.194;2022-07-29T10:22:46;4.20;;;3.90;;
4244;SDS011;2136;48.502;9.194;2022-07-29T10:25:14;6.63;;;4.90;;
4244;SDS011;2136;48.502;9.194;2022-07-29T10:27:42;3.97;;;3.33;;
4244;SDS011;2136;48.502;9.194;2022-07-29T10:30:09;6.83;;;3.60;;
4244;SDS011;2136;48.502;9.194;2022-07-29T10:35:43;4.90;;;3.30;;
4244;SDS011;2136;48.502;9.194;2022-07-29T10:38:24;4.33;;;3.17;;
4244;SDS011;2136;48.502;9.194;2022-07-29T10:41:07;3.97;;;3.73;;
4244;SDS011;2136;48.502;9.194;2022-07-29T10:43:54;4.53;;;3.67;;
4244;SDS011;2136;48.502;9.194;2022-07-29T10:46:25;4.83;;;3.40;;
4244;SDS011;2136;48.502;9.194;2022-07-29T10:49:06;4.00;;;3.57;;
4244;SDS011;2136;48.502;9.194;2022-07-29T10:51:55;3.70;;;3.13;;
4244;SDS011;2136;48.502;9.194;2022-07-29T10:54:40;3.40;;;3.10;;
4244;SDS011;2136;48.502;9.194;2022-07-29T11:02:53;3.60;;;3.20;;
4244;SDS011;2136;48.502;9.194;2022-07-29T11:05:21;3.67;;;3.37;;
4244;SDS011;2136;48.502;9.194;2022-07-29T11:10:52;5.20;;;3.63;;
4244;SDS011;2136;48.502;9.194;2022-07-29T11:13:50;6.90;;;3.53;;
4244;SDS011;2136;48.502;9.194;2022-07-29T11:16:19;3.53;;;3.23;;
4244;SDS011;2136;48.502;9.194;2022-07-29T11:21:47;4.27;;;2.80;;
4244;SDS011;2136;48.502;9.194;2022-07-29T11:24:17;4.60;;;3.20;;
4244;SDS011;2136;48.502;9.194;2022-07-29T11:26:46;3.33;;;3.07;;
4244;SDS011;2136;48.502;9.194;2022-07-29T11:29:40;6.60;;;3.23;;
4244;SDS011;2136;48.502;9.194;2022-07-29T11:32:15;3.73;;;3.30;;
4244;SDS011;2136;48.502;9.194;2022-07-29T11:34:44;5.73;;;3.10;;
4244;SDS011;2136;48.502;9.194;2022-07-29T11:37:18;3.37;;;3.07;;
4244;SDS011;2136;48.502;9.194;2022-07-29T11:42:39;3.70;;;3.30;;
4244;SDS011;2136;48.502;9.194;2022-07-29T11:45:13;3.90;;;3.03;;
4244;SDS011;2136;48.502;9.194;2022-07-29T11:47:49;10.10;;;3.17;;
4244;SDS011;2136;48.502;9.194;2022-07-29T11:50:26;3.67;;;3.37;;
4244;SDS011;2136;48.502;9.194;2022-07-29T11:52:55;4.73;;;3.03;;
4244;SDS011;2136;48.502;9.194;2022-07-29T11:55:24;3.93;;;3.37;;
4244;SDS011;2136;48.502;9.194;2022-07-29T11:57:52;3.67;;;2.90;;
4244;SDS011;2136;48.502;9.194;2022-07-29T12:00:21;3.90;;;3.57;;
4244;SDS011;2136;48.502;9.194;2022-07-29T12:02:49;3.60;;;3.30;;
4244;SDS011;2136;48.502;9.194;2022-07-29T12:05:16;3.50;;;2.60;;
4244;SDS011;2136;48.502;9.194;2022-07-29T12:07:44;3.33;;;3.00;;
4244;SDS011;2136;48.502;9.194;2022-07-29T12:10:11;3.13;;;2.93;;
4244;SDS011;2136;48.502;9.194;2022-07-29T12:12:39;5.47;;;3.80;;
4244;SDS011;2136;48.502;9.194;2022-07-29T12:15:13;4.30;;;3.83;;
4244;SDS011;2136;48.502;9.194;2022-07-29T12:17:42;4.20;;;3.47;;
4244;SDS011;2136;48.502;9.194;2022-07-29T12:20:09;7.40;;;3.83;;
4244;SDS011;2136;48.502;9.194;2022-07-29T12:22:38;6.70;;;3.97;;
4244;SDS011;2136;48.502;9.194;2022-07-29T12:25:09;5.37;;;4.30;;
4244;SDS011;2136;48.502;9.194;2022-07-29T12:27:40;3.90;;;3.70;;
4244;SDS011;2136;48.502;9.194;2022-07-29T12:30:09;4.57;;;3.93;;
4244;SDS011;2136;48.502;9.194;2022-07-29T12:32:38;4.30;;;3.70;;
4244;SDS011;2136;48.502;9.194;2022-07-29T12:35:07;7.90;;;3.23;;
4244;SDS011;2136;48.502;9.194;2022-07-29T12:37:36;4.67;;;4.20;;
4244;SDS011;2136;48.502;9.194;2022-07-29T12:40:04;3.70;;;3.40;;
4244;SDS011;2136;48.502;9.194;2022-07-29T12:42:32;4.53;;;3.13;;
4244;SDS011;2136;48.502;9.194;2022-07-29T12:45:01;3.87;;;3.37;;
4244;SDS011;2136;48.502;9.194;2022-07-29T12:47:28;4.40;;;4.00;;
4244;SDS011;2136;48.502;9.194;2022-07-29T12:50:07;4.13;;;3.70;;
4244;SDS011;2136;48.502;9.194;2022-07-29T12:52:35;9.40;;;5.00;;
4244;SDS011;2136;48.502;9.194;2022-07-29T12:55:02;7.50;;;3.83;;
4244;SDS011;2136;48.502;9.194;2022-07-29T12:57:30;4.90;;;4.40;;
4244;SDS011;2136;48.502;9.194;2022-07-29T13:00:03;3.97;;;3.63;;
4244;SDS011;2136;48.502;9.194;2022-07-29T13:02:34;4.43;;;3.97;;
4244;SDS011;2136;48.502;9.194;2022-07-29T13:05:01;3.93;;;3.10;;
4244;SDS011;2136;48.502;9.194;2022-07-29T13:07:30;7.53;;;3.40;;
4244;SDS011;2136;48.502;9.194;2022-07-29T13:10:10;4.63;;;2.87;;
4244;SDS011;2136;48.502;9.194;2022-07-29T13:15:30;8.07;;;3.63;;
4244;SDS011;2136;48.502;9.194;2022-07-29T13:17:57;6.90;;;5.20;;
4244;SDS011;2136;48.502;9.194;2022-07-29T13:20:26;3.67;;;3.43;;
4244;SDS011;2136;48.502;9.194;2022-07-29T13:22:54;4.50;;;4.20;;
4244;SDS011;2136;48.502;9.194;2022-07-29T13:25:26;6.10;;;4.03;;
4244;SDS011;2136;48.502;9.194;2022-07-29T13:27:53;7.60;;;4.00;;
4244;SDS011;2136;48.502;9.194;2022-07-29T13:30:21;4.13;;;3.37;;
4244;SDS011;2136;48.502;9.194;2022-07-29T13:32:50;4.03;;;3.73;;
4244;SDS011;2136;48.502;9.194;2022-07-29T13:35:17;3.97;;;3.40;;
4244;SDS011;2136;48.502;9.194;2022-07-29T13:37:45;5.03;;;3.60;;
4244;SDS011;2136;48.502;9.194;2022-07-29T13:40:12;4.37;;;3.97;;
4244;SDS011;2136;48.502;9.194;2022-07-29T13:42:39;3.60;;;3.30;;
4244;SDS011;2136;48.502;9.194;2022-07-29T13:45:07;5.53;;;3.57;;
4244;SDS011;2136;48.502;9.194;2022-07-29T13:47:35;7.80;;;3.00;;
4244;SDS011;2136;48.502;9.194;2022-07-29T13:50:04;3.57;;;3.20;;
4244;SDS011;2136;48.502;9.194;2022-07-29T13:52:32;3.10;;;2.70;;
4244;SDS011;2136;48.502;9.194;2022-07-29T13:55:00;3.37;;;2.70;;
4244;SDS011;2136;48.502;9.194;2022-07-29T13:57:27;3.30;;;3.00;;
4244;SDS011;2136;48.502;9.194;2022-07-29T13:59:54;4.40;;;3.60;;
4244;SDS011;2136;48.502;9.194;2022-07-29T14:02:21;3.93;;;3.10;;
4244;SDS011;2136;48.502;9.194;2022-07-29T14:04:48;3.80;;;3.30;;
4244;SDS011;2136;48.502;9.194;2022-07-29T14:07:16;3.97;;;3.57;;
4244;SDS011;2136;48.502;9.194;2022-07-29T14:09:43;5.07;;;3.00;;
4244;SDS011;2136;48.502;9.194;2022-07-29T14:12:10;6.40;;;3.97;;
4244;SDS011;2136;48.502;9.194;2022-07-29T14:14:37;5.27;;;3.00;;
4244;SDS011;2136;48.502;9.194;2022-07-29T14:17:04;5.47;;;3.40;;
4244;SDS011;2136;48.502;9.194;2022-07-29T14:19:32;3.33;;;3.10;;
4244;SDS011;2136;48.502;9.194;2022-07-29T14:22:01;2.77;;;2.57;;
4244;SDS011;2136;48.502;9.194;2022-07-29T14:24:30;4.63;;;3.40;;
4244;SDS011;2136;48.502;9.194;2022-07-29T14:26:57;3.50;;;3.30;;
4244;SDS011;2136;48.502;9.194;2022-07-29T14:29:24;3.73;;;3.43;;
4244;SDS011;2136;48.502;9.194;2022-07-29T14:38:35;4.10;;;3.47;;
4244;SDS011;2136;48.502;9.194;2022-07-29T14:41:05;3.60;;;3.30;;
4244;SDS011;2136;48.502;9.194;2022-07-29T14:43:32;5.50;;;3.23;;
4244;SDS011;2136;48.502;9.194;2022-07-29T14:45:59;3.40;;;3.10;;
4244;SDS011;2136;48.502;9.194;2022-07-29T14:48:26;3.47;;;3.17;;
4244;SDS011;2136;48.502;9.194;2022-07-29T14:50:53;14.53;;;3.67;;
4244;SDS011;2136;48.502;9.194;2022-07-29T14:53:21;4.03;;;3.20;;
4244;SDS011;2136;48.502;9.194;2022-07-29T14:55:48;4.00;;;3.13;;
4244;SDS011;2136;48.502;9.194;2022-07-29T14:58:16;3.70;;;3.40;;
4244;SDS011;2136;48.502;9.194;2022-07-29T15:00:44;3.20;;;2.90;;
4244;SDS011;2136;48.502;9.194;2022-07-29T15:03:11;3.72;;;3.42;;
4244;SDS011;2136;48.502;9.194;2022-07-29T15:05:38;4.30;;;3.90;;
4244;SDS011;2136;48.502;9.194;2022-07-29T15:08:05;3.37;;;3.17;;
4244;SDS011;2136;48.502;9.194;2022-07-29T15:10:33;6.63;;;3.43;;
4244;SDS011;2136;48.502;9.194;2022-07-29T15:12:59;4.00;;;3.50;;
4244;SDS011;2136;48.502;9.194;2022-07-29T15:15:28;3.53;;;3.33;;
4244;SDS011;2136;48.502;9.194;2022-07-29T15:17:54;3.40;;;3.10;;
4244;SDS011;2136;48.502;9.194;2022-07-29T15:20:21;6.00;;;3.70;;
4244;SDS011;2136;48.502;9.194;2022-07-29T15:22:50;3.43;;;3.23;;
4244;SDS011;2136;48.502;9.194;2022-07-29T15:25:17;4.13;;;3.33;;
4244;SDS011;2136;48.502;9.194;2022-07-29T15:27:44;3.03;;;2.83;;
4244;SDS011;2136;48.502;9.194;2022-07-29T15:30:11;5.57;;;3.57;;
4244;SDS011;2136;48.502;9.194;2022-07-29T15:32:41;5.10;;;3.73;;
4244;SDS011;2136;48.502;9.194;2022-07-29T15:38:30;3.97;;;3.67;;
4244;SDS011;2136;48.502;9.194;2022-07-29T15:40:57;5.90;;;3.90;;
4244;SDS011;2136;48.502;9.194;2022-07-29T15:43:24;3.47;;;3.20;;
4244;SDS011;2136;48.502;9.194;2022-07-29T15:45:51;3.93;;;3.63;;
4244;SDS011;2136;48.502;9.194;2022-07-29T15:48:38;6.20;;;3.63;;
4244;SDS011;2136;48.502;9.194;2022-07-29T15:51:05;3.67;;;3.37;;
4244;SDS011;2136;48.502;9.194;2022-07-29T15:53:32;5.23;;;4.00;;
4244;SDS011;2136;48.502;9.194;2022-07-29T15:55:59;4.40;;;3.97;;
4244;SDS011;2136;48.502;9.194;2022-07-29T15:58:26;5.27;;;3.90;;
4244;SDS011;2136;48.502;9.194;2022-07-29T16:00:53;4.40;;;4.00;;
4244;SDS011;2136;48.502;9.194;2022-07-29T16:03:19;5.03;;;4.00;;